createdAt,value
2022-09-15T00:00:12.766Z,100080.59
2022-09-15T00:02:39.546Z,100063.44
2022-09-15T00:05:06.375Z,100084.84
2022-09-15T00:07:33.149Z,100074.06
2022-09-15T00:09:59.810Z,100083.25
2022-09-15T00:12:27.953Z,100075.69
2022-09-15T00:14:55.155Z,100089.56
2022-09-15T00:17:21.776Z,100085.31
2022-09-15T00:19:48.577Z,100083.97
2022-09-15T00:22:16.074Z,100092.78
2022-09-15T00:24:42.822Z,100090.59
2022-09-15T00:27:09.568Z,100090.00
2022-09-15T00:29:36.843Z,100097.31
2022-09-15T00:32:03.660Z,100089.81
2022-09-15T00:34:30.351Z,100097.41
2022-09-15T00:36:57.131Z,100108.88
2022-09-15T00:39:23.742Z,100105.38
2022-09-15T00:41:50.514Z,100103.78
2022-09-15T00:44:17.095Z,100105.63
2022-09-15T00:46:54.807Z,100109.22
2022-09-15T00:49:36.121Z,100094.84
2022-09-15T00:52:08.393Z,100093.25
2022-09-15T00:54:50.912Z,100101.97
2022-09-15T00:57:32.015Z,100107.63
2022-09-15T01:00:00.774Z,100110.41
2022-09-15T01:02:33.090Z,100096.69
2022-09-15T01:05:03.341Z,100102.13
2022-09-15T01:07:48.070Z,100105.25
2022-09-15T01:10:26.556Z,100113.31
2022-09-15T01:12:57.204Z,100099.25
2022-09-15T01:15:32.545Z,100116.41
2022-09-15T01:18:36.256Z,100104.56
2022-09-15T01:21:19.161Z,100103.31
2022-09-15T01:24:11.815Z,100108.72
2022-09-15T01:26:56.705Z,100106.31
2022-09-15T01:29:29.184Z,100106.31
2022-09-15T01:32:26.022Z,100092.75
2022-09-15T01:35:05.147Z,100103.09
2022-09-15T01:37:38.125Z,100114.41
2022-09-15T01:40:06.722Z,100122.50
2022-09-15T01:42:34.942Z,100116.56
2022-09-15T01:45:08.658Z,100123.03
2022-09-15T01:47:36.572Z,100111.25
2022-09-15T01:50:08.348Z,100113.38
2022-09-15T01:52:36.686Z,100112.31
2022-09-15T01:55:11.846Z,100118.69
2022-09-15T01:57:38.813Z,100126.63
2022-09-15T02:00:06.022Z,100118.06
2022-09-15T02:02:44.141Z,100109.38
2022-09-15T02:05:20.801Z,100103.31
2022-09-15T02:07:57.216Z,100121.34
2022-09-15T02:10:32.796Z,100115.19
2022-09-15T02:13:18.152Z,100117.84
2022-09-15T02:15:48.474Z,100101.75
2022-09-15T02:18:48.533Z,100123.03
2022-09-15T02:21:33.696Z,100104.69
2022-09-15T02:24:12.109Z,100110.84
2022-09-15T02:26:41.950Z,100092.69
2022-09-15T02:29:15.298Z,100098.75
2022-09-15T02:31:47.014Z,100096.31
2022-09-15T02:34:19.683Z,100106.94
2022-09-15T02:36:49.323Z,100093.91
2022-09-15T02:39:20.617Z,100105.13
2022-09-15T02:41:48.886Z,100103.41
2022-09-15T02:44:15.798Z,100108.94
2022-09-15T02:46:43.942Z,100106.50
2022-09-15T02:49:10.749Z,100114.47
2022-09-15T02:51:37.350Z,100123.38
2022-09-15T02:54:04.142Z,100119.66
2022-09-15T02:56:30.708Z,100124.22
2022-09-15T02:58:57.318Z,100120.09
2022-09-15T03:01:31.915Z,100121.06
2022-09-15T03:03:59.198Z,100124.88
2022-09-15T03:06:27.938Z,100117.22
2022-09-15T03:08:57.681Z,100114.78
2022-09-15T03:11:27.043Z,100110.69
2022-09-15T03:13:55.929Z,100117.66
2022-09-15T03:16:23.506Z,100122.97
2022-09-15T03:18:50.737Z,100113.75
2022-09-15T03:21:18.604Z,100129.56
2022-09-15T03:23:45.892Z,100113.31
2022-09-15T03:26:12.612Z,100120.22
2022-09-15T03:28:39.860Z,100116.94
2022-09-15T03:31:08.111Z,100131.56
2022-09-15T03:33:35.551Z,100129.88
2022-09-15T03:36:03.058Z,100118.72
2022-09-15T03:38:29.694Z,100123.19
2022-09-15T03:41:04.061Z,100129.00
2022-09-15T03:43:32.299Z,100119.69
2022-09-15T03:45:59.077Z,100122.22
2022-09-15T03:48:27.610Z,100129.66
2022-09-15T03:50:54.354Z,100125.94
2022-09-15T03:53:21.081Z,100115.84
2022-09-15T03:55:49.042Z,100115.66
2022-09-15T03:58:18.553Z,100107.16
2022-09-15T04:00:46.528Z,100106.13
2022-09-15T04:03:13.709Z,100117.34
2022-09-15T04:05:40.787Z,100112.88
2022-09-15T04:08:07.381Z,100116.41
2022-09-15T04:10:35.089Z,100123.38
2022-09-15T04:13:02.009Z,100104.50
2022-09-15T04:15:28.614Z,100109.91
2022-09-15T04:17:55.859Z,100117.66
2022-09-15T04:20:22.579Z,100123.19
2022-09-15T04:22:49.373Z,100105.88
2022-09-15T04:25:16.821Z,100122.22
2022-09-15T04:27:43.578Z,100118.09
2022-09-15T04:30:10.466Z,100112.06
2022-09-15T04:32:37.423Z,100116.28
2022-09-15T04:35:05.339Z,100118.19
2022-09-15T04:37:33.466Z,100125.31
2022-09-15T04:40:00.553Z,100124.44
2022-09-15T04:42:27.739Z,100124.34
2022-09-15T04:44:56.921Z,100123.38
2022-09-15T04:47:23.542Z,100126.03
2022-09-15T04:49:50.771Z,100121.56
2022-09-15T04:52:17.381Z,100118.94
2022-09-15T04:54:44.022Z,100116.78
2022-09-15T04:57:11.429Z,100111.50
2022-09-15T04:59:38.002Z,100128.16
2022-09-15T05:02:04.747Z,100128.16
2022-09-15T05:04:31.598Z,100116.38
2022-09-15T05:06:58.438Z,100121.56
2022-09-15T05:09:26.533Z,100135.66
2022-09-15T05:11:53.355Z,100129.22
2022-09-15T05:14:20.007Z,100129.31
2022-09-15T05:16:46.607Z,100131.13
2022-09-15T05:19:13.534Z,100133.88
2022-09-15T05:21:40.204Z,100140.97
2022-09-15T05:24:07.313Z,100122.97
2022-09-15T05:26:34.113Z,100132.59
2022-09-15T05:29:00.761Z,100134.28
2022-09-15T05:31:32.300Z,100141.06
2022-09-15T05:34:01.344Z,100149.00
2022-09-15T05:36:28.071Z,100146.38
2022-09-15T05:38:56.789Z,100145.00
2022-09-15T05:41:24.536Z,100155.28
2022-09-15T05:43:51.206Z,100145.72
2022-09-15T05:46:19.517Z,100138.28
2022-09-15T05:48:46.927Z,100153.28
2022-09-15T05:51:14.214Z,100156.56
2022-09-15T05:53:41.142Z,100158.38
2022-09-15T05:56:12.129Z,100146.38
2022-09-15T05:58:43.555Z,100156.75
2022-09-15T06:01:16.398Z,100168.03
2022-09-15T06:03:43.514Z,100172.44
2022-09-15T06:06:10.699Z,100168.34
2022-09-15T06:08:44.016Z,100171.63
2022-09-15T06:11:13.840Z,100178.53
2022-09-15T06:13:40.640Z,100174.91
2022-09-15T06:16:09.881Z,100169.06
2022-09-15T06:18:38.534Z,100183.72
2022-09-15T06:21:13.400Z,100175.22
2022-09-15T06:23:40.907Z,100185.28
2022-09-15T06:26:18.841Z,100175.97
2022-09-15T06:28:50.859Z,100172.44
2022-09-15T06:31:18.597Z,100186.78
2022-09-15T06:33:47.736Z,100179.56
2022-09-15T06:36:15.835Z,100184.88
2022-09-15T06:38:43.094Z,100188.09
2022-09-15T06:41:10.830Z,100184.34
2022-09-15T06:43:37.728Z,100182.88
2022-09-15T06:46:07.901Z,100186.81
2022-09-15T06:48:36.305Z,100190.31
2022-09-15T06:51:04.408Z,100192.88
2022-09-15T06:53:33.294Z,100183.53
2022-09-15T06:56:09.166Z,100193.06
2022-09-15T06:58:37.889Z,100201.75
2022-09-15T07:01:09.852Z,100204.31
2022-09-15T07:03:38.434Z,100210.25
2022-09-15T07:06:06.659Z,100213.66
2022-09-15T07:08:33.986Z,100215.25
2022-09-15T07:11:01.151Z,100207.19
2022-09-15T07:13:27.744Z,100207.81
2022-09-15T07:15:59.149Z,100204.53
2022-09-15T07:18:27.149Z,100211.22
2022-09-15T07:21:00.061Z,100213.31
2022-09-15T07:23:27.350Z,100220.13
2022-09-15T07:26:09.269Z,100216.94
2022-09-15T07:28:36.902Z,100214.19
2022-09-15T07:31:06.044Z,100221.84
2022-09-15T07:33:33.752Z,100221.94
2022-09-15T07:36:08.492Z,100226.16
2022-09-15T07:38:39.009Z,100224.16
2022-09-15T07:41:07.361Z,100223.97
2022-09-15T07:43:34.480Z,100211.84
2022-09-15T07:46:02.013Z,100224.69
2022-09-15T07:48:29.628Z,100227.97
2022-09-15T07:50:57.176Z,100232.22
2022-09-15T07:53:23.862Z,100227.34
2022-09-15T07:55:54.063Z,100231.69
2022-09-15T07:58:21.610Z,100228.72
2022-09-15T08:00:49.136Z,100219.16
2022-09-15T08:03:16.952Z,100232.34
2022-09-15T08:05:45.748Z,100221.94
2022-09-15T08:08:13.045Z,100219.06
2022-09-15T08:10:41.284Z,100222.38
2022-09-15T08:13:08.179Z,100239.97
2022-09-15T08:15:38.854Z,100242.22
2022-09-15T08:18:06.331Z,100248.16
2022-09-15T08:20:33.693Z,100228.63
2022-09-15T08:23:00.855Z,100239.78
2022-09-15T08:25:27.434Z,100237.03
2022-09-15T08:27:55.106Z,100255.19
2022-09-15T08:30:23.794Z,100255.91
2022-09-15T08:32:50.753Z,100253.47
2022-09-15T08:35:17.801Z,100254.03
2022-09-15T08:37:44.684Z,100249.56
2022-09-15T08:40:22.317Z,100250.06
2022-09-15T08:42:52.466Z,100252.63
2022-09-15T08:45:29.367Z,100262.59
2022-09-15T08:48:03.689Z,100269.28
2022-09-15T08:50:43.608Z,100259.72
2022-09-15T08:53:31.163Z,100264.16
2022-09-15T08:56:05.445Z,100264.91
2022-09-15T08:58:37.823Z,100266.38
2022-09-15T09:01:35.515Z,100272.53
2022-09-15T09:04:10.665Z,100268.31
2022-09-15T09:06:49.929Z,100268.59
2022-09-15T09:09:19.197Z,100286.53
2022-09-15T09:12:15.362Z,100277.94
2022-09-15T09:14:53.804Z,100286.09
2022-09-15T09:17:40.782Z,100286.84
2022-09-15T09:20:19.434Z,100279.72
2022-09-15T09:22:49.870Z,100276.84
2022-09-15T09:25:27.197Z,100283.34
2022-09-15T09:27:55.740Z,100279.38
2022-09-15T09:30:25.115Z,100275.97
2022-09-15T09:33:01.267Z,100278.81
2022-09-15T09:35:40.339Z,100278.59
2022-09-15T09:38:10.299Z,100267.00
2022-09-15T09:40:41.186Z,100277.94
2022-09-15T09:43:08.872Z,100278.03
2022-09-15T09:45:36.051Z,100281.94
2022-09-15T09:48:15.060Z,100282.19
2022-09-15T09:50:50.725Z,100284.06
2022-09-15T09:53:26.474Z,100298.97
2022-09-15T09:56:12.752Z,100293.66
2022-09-15T09:58:39.382Z,100296.31
2022-09-15T10:01:11.772Z,100298.84
2022-09-15T10:03:39.031Z,100296.19
2022-09-15T10:06:12.603Z,100290.09
2022-09-15T10:08:54.543Z,100283.09
2022-09-15T10:11:22.520Z,100288.09
2022-09-15T10:13:56.544Z,100290.50
2022-09-15T10:16:23.302Z,100291.28
2022-09-15T10:18:54.164Z,100300.81
2022-09-15T10:21:24.092Z,100299.63
2022-09-15T10:23:50.784Z,100290.34
2022-09-15T10:26:33.759Z,100298.72
2022-09-15T10:29:13.865Z,100280.56
2022-09-15T10:31:41.755Z,100288.91
2022-09-15T10:34:30.739Z,100288.69
2022-09-15T10:37:23.534Z,100288.34
2022-09-15T10:39:55.536Z,100276.75
2022-09-15T10:42:43.093Z,100284.16
2022-09-15T10:45:26.345Z,100280.28
2022-09-15T10:48:14.917Z,100290.47
2022-09-15T10:51:21.113Z,100277.28
2022-09-15T10:54:01.601Z,100294.00
2022-09-15T10:56:40.770Z,100297.91
2022-09-15T10:59:25.891Z,100295.00
2022-09-15T11:01:59.843Z,100303.38
2022-09-15T11:04:57.374Z,100303.00
2022-09-15T11:07:41.933Z,100293.56
2022-09-15T11:10:36.908Z,100296.34
2022-09-15T11:13:38.954Z,100304.81
2022-09-15T11:16:27.328Z,100305.56
2022-09-15T11:19:06.423Z,100303.00
2022-09-15T11:21:39.390Z,100290.66
2022-09-15T11:24:27.428Z,100311.59
2022-09-15T11:27:28.400Z,100316.09
2022-09-15T11:30:20.273Z,100308.94
2022-09-15T11:32:57.926Z,100311.00
2022-09-15T11:35:39.457Z,100319.84
2022-09-15T11:38:34.470Z,100324.19
2022-09-15T11:41:19.991Z,100316.09
2022-09-15T11:44:17.734Z,100307.88
2022-09-15T11:47:14.327Z,100325.56
2022-09-15T11:49:46.698Z,100307.88
2022-09-15T11:52:36.444Z,100320.50
2022-09-15T11:55:18.576Z,100305.25
2022-09-15T11:57:51.638Z,100306.47
2022-09-15T12:00:18.374Z,100320.63
2022-09-15T12:03:10.725Z,100313.97
2022-09-15T12:05:45.232Z,100313.72
2022-09-15T12:08:37.614Z,100313.84
2022-09-15T12:11:12.327Z,100298.47
2022-09-15T12:13:41.266Z,100320.75
2022-09-15T12:16:09.371Z,100317.00
2022-09-15T12:18:43.754Z,100328.41
2022-09-15T12:21:19.816Z,100330.06
2022-09-15T12:24:02.929Z,100321.13
2022-09-15T12:26:33.595Z,100323.78
2022-09-15T12:29:05.003Z,100320.03
2022-09-15T12:31:39.655Z,100323.41
2022-09-15T12:34:24.770Z,100330.56
2022-09-15T12:37:07.074Z,100326.56
2022-09-15T12:39:44.609Z,100328.25
2022-09-15T12:42:25.140Z,100328.47
2022-09-15T12:45:06.075Z,100312.72
2022-09-15T12:47:35.556Z,100320.25
2022-09-15T12:50:09.119Z,100304.97
2022-09-15T12:52:50.078Z,100316.00
2022-09-15T12:55:37.861Z,100329.28
2022-09-15T12:58:10.675Z,100319.72
2022-09-15T13:00:54.762Z,100331.00
2022-09-15T13:03:28.505Z,100310.91
2022-09-15T13:06:10.535Z,100334.03
2022-09-15T13:08:37.274Z,100333.31
2022-09-15T13:11:09.318Z,100327.53
2022-09-15T13:13:54.785Z,100331.97
2022-09-15T13:16:30.965Z,100337.31
2022-09-15T13:19:15.122Z,100334.66
2022-09-15T13:21:47.286Z,100338.91
2022-09-15T13:24:36.211Z,100331.28
2022-09-15T13:27:04.816Z,100332.59
2022-09-15T13:29:33.130Z,100316.84
2022-09-15T13:32:09.374Z,100332.47
2022-09-15T13:35:05.768Z,100321.78
2022-09-15T13:40:54.483Z,100323.97
2022-09-15T13:43:40.635Z,100329.16
2022-09-15T13:46:29.173Z,100334.38
2022-09-15T13:49:08.112Z,100330.00
2022-09-15T13:51:37.039Z,100322.00
2022-09-15T13:54:15.493Z,100322.00
2022-09-15T13:56:42.249Z,100327.84
2022-09-15T13:59:18.910Z,100330.50
2022-09-15T14:01:46.030Z,100317.03
2022-09-15T14:04:17.046Z,100337.25
2022-09-15T14:06:47.249Z,100334.59
2022-09-15T14:09:29.093Z,100334.72
2022-09-15T14:12:10.557Z,100334.97
2022-09-15T14:14:47.933Z,100338.09
2022-09-15T14:17:21.238Z,100334.97
2022-09-15T14:19:50.234Z,100343.22
2022-09-15T14:22:31.994Z,100356.31
2022-09-15T14:25:14.337Z,100350.91
2022-09-15T14:27:51.146Z,100346.31
2022-09-15T14:30:21.587Z,100344.25
2022-09-15T14:32:52.366Z,100349.44
2022-09-15T14:35:31.808Z,100355.03
2022-09-15T14:38:00.137Z,100356.84
2022-09-15T14:40:26.736Z,100361.22
2022-09-15T14:42:53.446Z,100346.19
2022-09-15T14:48:15.941Z,100360.25
2022-09-15T14:50:46.548Z,100353.34
2022-09-15T14:53:35.724Z,100350.06
2022-09-15T14:56:10.044Z,100365.34
2022-09-15T14:58:53.801Z,100362.91
2022-09-15T15:01:32.749Z,100365.56
2022-09-15T15:04:09.852Z,100357.69
2022-09-15T15:07:01.942Z,100363.03
2022-09-15T15:10:02.852Z,100351.75
2022-09-15T15:12:44.096Z,100361.22
2022-09-15T15:15:13.662Z,100354.28
2022-09-15T15:17:47.229Z,100354.28
2022-09-15T15:20:18.036Z,100361.09
2022-09-15T15:22:46.222Z,100361.31
2022-09-15T15:25:23.908Z,100360.59
2022-09-15T15:27:54.092Z,100361.31
2022-09-15T15:30:43.205Z,100357.81
2022-09-15T15:33:21.153Z,100369.56
2022-09-15T15:36:06.034Z,100352.00
2022-09-15T15:38:41.760Z,100348.97
2022-09-15T15:41:22.367Z,100358.03
2022-09-15T15:44:00.414Z,100361.94
2022-09-15T15:46:47.188Z,100360.34
2022-09-15T15:49:14.164Z,100354.97
2022-09-15T15:51:41.492Z,100354.91
2022-09-15T15:54:08.370Z,100349.38
2022-09-15T15:56:38.052Z,100348.25
2022-09-15T15:59:05.873Z,100365.16
2022-09-15T16:01:33.455Z,100372.09
2022-09-15T16:04:00.290Z,100366.66
2022-09-15T16:06:27.106Z,100376.13
2022-09-15T16:08:58.300Z,100370.47
2022-09-15T16:11:25.107Z,100376.75
2022-09-15T16:13:52.369Z,100380.06
2022-09-15T16:16:25.117Z,100366.72
2022-09-15T16:18:52.471Z,100356.97
2022-09-15T16:21:20.353Z,100379.59
2022-09-15T16:23:47.396Z,100376.53
2022-09-15T16:26:17.194Z,100381.03
2022-09-15T16:28:44.456Z,100380.81
2022-09-15T16:31:13.576Z,100375.88
2022-09-15T16:33:44.297Z,100378.25
2022-09-15T16:36:17.879Z,100382.75
2022-09-15T16:38:45.514Z,100387.59
2022-09-15T16:41:17.357Z,100388.94
2022-09-15T16:43:45.415Z,100373.09
2022-09-15T16:46:13.984Z,100370.34
2022-09-15T16:48:42.891Z,100376.75
2022-09-15T16:51:29.919Z,100393.16
2022-09-15T16:53:57.880Z,100371.69
2022-09-15T16:56:24.861Z,100382.22
2022-09-15T16:58:58.794Z,100386.38
2022-09-15T17:01:27.142Z,100380.66
2022-09-15T17:03:53.834Z,100379.97
2022-09-15T17:06:22.130Z,100383.81
2022-09-15T17:08:49.302Z,100383.34
2022-09-15T17:11:19.399Z,100391.59
2022-09-15T17:13:47.099Z,100394.63
2022-09-15T17:16:15.938Z,100382.16
2022-09-15T17:18:42.655Z,100382.75
2022-09-15T17:21:13.598Z,100380.22
2022-09-15T17:23:48.532Z,100387.72
2022-09-15T17:26:20.170Z,100392.22
2022-09-15T17:28:47.027Z,100393.31
2022-09-15T17:31:20.151Z,100384.19
2022-09-15T17:33:47.882Z,100393.91
2022-09-15T17:36:15.048Z,100400.53
2022-09-15T17:38:42.027Z,100401.41
2022-09-15T17:41:22.802Z,100387.69
2022-09-15T17:43:49.793Z,100406.97
2022-09-15T17:46:16.403Z,100402.00
2022-09-15T17:48:43.262Z,100391.94
2022-09-15T17:51:15.138Z,100406.69
2022-09-15T17:53:41.891Z,100387.56
2022-09-15T17:56:08.596Z,100403.19
2022-09-15T17:58:35.217Z,100406.47
2022-09-15T18:01:03.780Z,100410.00
2022-09-15T18:03:34.861Z,100414.44
2022-09-15T18:06:05.356Z,100412.78
2022-09-15T18:08:33.274Z,100402.47
2022-09-15T18:11:00.778Z,100404.41
2022-09-15T18:13:29.994Z,100414.69
2022-09-15T18:15:57.947Z,100419.28
2022-09-15T18:18:28.532Z,100406.69
2022-09-15T18:20:58.017Z,100419.53
2022-09-15T18:23:28.340Z,100418.09
2022-09-15T18:25:55.208Z,100420.75
2022-09-15T18:28:21.885Z,100428.97
2022-09-15T18:30:49.862Z,100426.53
2022-09-15T18:33:18.611Z,100417.16
2022-09-15T18:35:46.494Z,100431.19
2022-09-15T18:38:13.651Z,100440.28
2022-09-15T18:40:49.480Z,100434.09
2022-09-15T18:43:17.515Z,100443.91
2022-09-15T18:45:44.523Z,100451.91
2022-09-15T18:48:13.130Z,100437.56
2022-09-15T18:50:41.594Z,100452.00
2022-09-15T18:53:08.709Z,100459.28
2022-09-15T18:55:35.594Z,100444.09
2022-09-15T18:58:02.688Z,100461.41
2022-09-15T19:00:29.731Z,100454.75
2022-09-15T19:02:58.665Z,100451.81
2022-09-15T19:05:26.806Z,100459.03
2022-09-15T19:07:54.030Z,100466.09
2022-09-15T19:10:21.652Z,100468.97
2022-09-15T19:12:48.902Z,100476.84
2022-09-15T19:15:15.722Z,100475.25
2022-09-15T19:17:44.039Z,100482.06
2022-09-15T19:20:13.245Z,100483.13
2022-09-15T19:22:40.856Z,100476.34
2022-09-15T19:25:08.936Z,100489.31
2022-09-15T19:27:36.413Z,100493.88
2022-09-15T19:30:03.113Z,100484.66
2022-09-15T19:32:29.948Z,100485.16
2022-09-15T19:34:56.575Z,100487.31
2022-09-15T19:37:23.292Z,100488.28
2022-09-15T19:39:50.244Z,100498.81
2022-09-15T19:42:17.162Z,100488.59
2022-09-15T19:44:44.195Z,100497.66
2022-09-15T19:47:10.934Z,100504.69
2022-09-15T19:49:37.711Z,100490.44
2022-09-15T19:52:06.326Z,100494.72
2022-09-15T19:54:34.511Z,100513.94
2022-09-15T19:57:01.486Z,100485.47
2022-09-15T19:59:31.345Z,100496.25
2022-09-15T20:02:00.694Z,100503.88
2022-09-15T20:04:28.669Z,100497.31
2022-09-15T20:06:55.332Z,100504.00
2022-09-15T20:09:22.765Z,100508.38
2022-09-15T20:11:49.538Z,100511.38
2022-09-15T20:14:16.262Z,100503.72
2022-09-15T20:16:43.219Z,100512.66
2022-09-15T20:19:10.033Z,100499.06
2022-09-15T20:21:49.914Z,100496.63
2022-09-15T20:24:19.015Z,100504.47
2022-09-15T20:26:45.462Z,100505.41
2022-09-15T20:29:12.577Z,100498.34
2022-09-15T20:31:39.532Z,100505.34
2022-09-15T20:34:06.207Z,100514.59
2022-09-15T20:36:36.089Z,100507.16
2022-09-15T20:39:05.471Z,100515.00
2022-09-15T20:41:32.178Z,100510.66
2022-09-15T20:43:58.796Z,100504.91
2022-09-15T20:46:25.660Z,100512.78
2022-09-15T20:48:52.680Z,100518.19
2022-09-15T20:51:22.890Z,100521.28
2022-09-15T20:53:55.896Z,100511.59
2022-09-15T20:56:25.655Z,100523.59
2022-09-15T20:58:58.605Z,100531.13
2022-09-15T21:01:38.847Z,100527.53
2022-09-15T21:04:07.999Z,100539.41
2022-09-15T21:06:34.863Z,100531.75
2022-09-15T21:09:02.017Z,100536.66
2022-09-15T21:11:28.957Z,100540.19
2022-09-15T21:13:56.467Z,100541.44
2022-09-15T21:16:26.427Z,100538.88
2022-09-15T21:18:53.328Z,100549.31
2022-09-15T21:21:25.916Z,100548.00
2022-09-15T21:23:55.277Z,100553.63
2022-09-15T21:26:26.964Z,100537.06
2022-09-15T21:28:55.087Z,100546.53
2022-09-15T21:31:25.569Z,100552.88
2022-09-15T21:33:53.875Z,100553.31
2022-09-15T21:36:24.648Z,100542.13
2022-09-15T21:38:53.099Z,100543.38
2022-09-15T21:41:22.021Z,100556.16
2022-09-15T21:43:49.952Z,100556.56
2022-09-15T21:46:19.009Z,100572.69
2022-09-15T21:48:47.511Z,100557.38
2022-09-15T21:51:23.531Z,100565.13
2022-09-15T21:53:53.040Z,100561.09
2022-09-15T21:56:20.695Z,100553.63
2022-09-15T21:58:47.267Z,100553.94
2022-09-15T22:01:19.001Z,100559.88
2022-09-15T22:03:49.885Z,100559.34
2022-09-15T22:06:16.912Z,100552.53
2022-09-15T22:08:44.698Z,100556.31
2022-09-15T22:11:11.846Z,100566.81
2022-09-15T22:13:43.672Z,100565.34
2022-09-15T22:16:15.554Z,100562.94
2022-09-15T22:18:43.310Z,100564.00
2022-09-15T22:21:12.073Z,100552.19
2022-09-15T22:23:40.106Z,100566.94
2022-09-15T22:26:12.711Z,100553.69
2022-09-15T22:28:39.538Z,100561.47
2022-09-15T22:31:09.287Z,100555.03
2022-09-15T22:33:36.806Z,100563.09
2022-09-15T22:36:04.051Z,100556.56
2022-09-15T22:38:31.049Z,100567.28
2022-09-15T22:41:09.027Z,100567.00
2022-09-15T22:43:36.967Z,100562.09
2022-09-15T22:46:04.944Z,100564.81
2022-09-15T22:48:32.031Z,100563.03
2022-09-15T22:50:59.160Z,100559.53
2022-09-15T22:53:26.502Z,100565.75
2022-09-15T22:56:05.095Z,100551.16
2022-09-15T22:58:36.338Z,100571.72
2022-09-15T23:01:14.646Z,100566.78
2022-09-15T23:03:41.386Z,100569.25
2022-09-15T23:06:08.483Z,100563.00
2022-09-15T23:08:36.384Z,100561.59
2022-09-15T23:11:11.753Z,100560.84
2022-09-15T23:13:39.585Z,100569.72
2022-09-15T23:16:07.315Z,100557.00
2022-09-15T23:18:34.856Z,100562.97
2022-09-15T23:21:05.232Z,100556.34
2022-09-15T23:23:31.848Z,100564.78
2022-09-15T23:25:58.447Z,100568.38
2022-09-15T23:28:25.541Z,100572.25
2022-09-15T23:30:56.819Z,100572.25
2022-09-15T23:33:24.864Z,100580.09
2022-09-15T23:35:52.298Z,100567.22
2022-09-15T23:38:20.700Z,100568.91
2022-09-15T23:40:48.859Z,100581.88
2022-09-15T23:43:16.810Z,100577.72
2022-09-15T23:45:44.774Z,100565.03
2022-09-15T23:48:12.517Z,100564.28
2022-09-15T23:50:40.529Z,100577.13
2022-09-15T23:53:07.998Z,100560.66
2022-09-15T23:55:35.609Z,100573.81
2022-09-15T23:58:02.767Z,100579.97
